createdAt,value
2023-03-07T00:00:12.925Z,46.40
2023-03-07T00:03:05.430Z,43.80
2023-03-07T00:05:37.699Z,45.30
2023-03-07T00:08:10.286Z,38.50
2023-03-07T00:10:42.598Z,36.80
2023-03-07T00:13:14.736Z,37.90
2023-03-07T00:15:46.887Z,38.80
2023-03-07T00:18:19.195Z,37.30
2023-03-07T00:20:59.787Z,32.90
2023-03-07T00:23:31.904Z,27.80
2023-03-07T00:26:06.452Z,27.00
2023-03-07T00:28:38.900Z,25.70
2023-03-07T00:31:12.437Z,27.80
2023-03-07T00:33:44.685Z,26.10
2023-03-07T00:36:19.888Z,28.30
2023-03-07T00:41:24.351Z,29.40
2023-03-07T00:43:57.570Z,31.70
2023-03-07T00:46:30.992Z,30.50
2023-03-07T00:49:04.049Z,32.80
2023-03-07T00:51:36.228Z,31.60
2023-03-07T00:54:09.217Z,29.60
2023-03-07T00:56:41.867Z,30.50
2023-03-07T00:59:14.599Z,30.00
2023-03-07T01:01:46.765Z,31.00
2023-03-07T01:04:19.221Z,33.20
2023-03-07T01:06:51.823Z,34.20
2023-03-07T01:09:24.738Z,31.10
2023-03-07T01:11:56.976Z,29.50
2023-03-07T01:14:30.680Z,30.50
2023-03-07T01:17:04.115Z,34.60
2023-03-07T01:19:36.249Z,34.70
2023-03-07T01:22:08.644Z,43.10
2023-03-07T01:24:41.761Z,57.30
2023-03-07T01:27:14.211Z,61.30
2023-03-07T01:29:46.489Z,41.70
2023-03-07T01:32:18.930Z,39.10
2023-03-07T01:34:51.181Z,35.60
2023-03-07T01:37:23.674Z,36.30
2023-03-07T01:39:56.871Z,33.30
2023-03-07T01:42:32.921Z,32.90
2023-03-07T01:45:09.776Z,35.90
2023-03-07T01:47:47.937Z,35.80
2023-03-07T01:50:21.001Z,36.90
2023-03-07T01:52:57.307Z,36.10
2023-03-07T01:55:34.073Z,42.70
2023-03-07T01:58:16.552Z,37.00
2023-03-07T02:00:48.736Z,38.20
2023-03-07T02:03:31.590Z,34.40
2023-03-07T02:06:06.900Z,34.40
2023-03-07T02:08:41.406Z,33.80
2023-03-07T02:11:14.239Z,36.40
2023-03-07T02:13:46.408Z,36.50
2023-03-07T02:16:19.002Z,34.60
2023-03-07T02:18:52.229Z,36.60
2023-03-07T02:21:35.838Z,38.40
2023-03-07T02:24:16.916Z,38.40
2023-03-07T02:26:50.825Z,40.40
2023-03-07T02:29:23.538Z,39.40
2023-03-07T02:31:55.759Z,41.30
2023-03-07T02:34:30.329Z,36.00
2023-03-07T02:37:26.689Z,33.80
2023-03-07T02:40:00.240Z,34.80
2023-03-07T02:42:35.036Z,30.80
2023-03-07T02:45:15.073Z,27.70
2023-03-07T02:47:48.596Z,29.30
2023-03-07T02:50:22.503Z,31.10
2023-03-07T02:52:56.960Z,34.40
2023-03-07T02:55:29.478Z,33.00
2023-03-07T02:58:04.694Z,31.80
2023-03-07T03:00:37.167Z,28.30
2023-03-07T03:03:09.590Z,24.00
2023-03-07T03:05:41.679Z,24.00
2023-03-07T03:08:13.931Z,24.80
2023-03-07T03:10:46.230Z,23.40
2023-03-07T03:13:19.042Z,25.20
2023-03-07T03:15:55.840Z,24.40
2023-03-07T03:18:30.394Z,25.00
2023-03-07T03:21:10.650Z,22.40
2023-03-07T03:23:43.315Z,22.50
2023-03-07T03:26:15.833Z,30.20
2023-03-07T03:28:48.058Z,24.40
2023-03-07T03:31:20.579Z,26.30
2023-03-07T03:33:53.436Z,27.70
2023-03-07T03:36:26.630Z,25.80
2023-03-07T03:39:01.661Z,25.90
2023-03-07T03:41:34.517Z,24.80
2023-03-07T03:44:06.968Z,28.60
2023-03-07T03:46:39.627Z,26.80
2023-03-07T03:49:16.791Z,28.30
2023-03-07T03:51:49.928Z,26.70
2023-03-07T03:54:22.763Z,24.20
2023-03-07T03:56:56.160Z,31.20
2023-03-07T03:59:28.387Z,35.90
2023-03-07T04:02:00.668Z,28.80
2023-03-07T04:04:32.924Z,25.50
2023-03-07T04:07:05.520Z,27.70
2023-03-07T04:09:38.080Z,25.20
2023-03-07T04:12:11.049Z,24.00
2023-03-07T04:14:43.280Z,26.00
2023-03-07T04:17:15.454Z,25.40
2023-03-07T04:19:47.741Z,24.50
2023-03-07T04:22:19.961Z,25.20
2023-03-07T04:24:52.155Z,27.20
2023-03-07T04:27:24.508Z,28.30
2023-03-07T04:29:57.105Z,32.50
2023-03-07T04:32:30.046Z,27.40
2023-03-07T04:35:02.337Z,26.80
2023-03-07T04:37:34.585Z,23.60
2023-03-07T04:40:07.972Z,22.90
2023-03-07T04:42:40.429Z,23.00
2023-03-07T04:45:14.260Z,51.10
2023-03-07T04:47:46.535Z,33.00
2023-03-07T04:50:20.139Z,26.20
2023-03-07T04:52:52.739Z,25.30
2023-03-07T04:55:25.162Z,27.80
2023-03-07T04:57:57.875Z,35.90
2023-03-07T05:00:30.881Z,37.90
2023-03-07T05:03:03.278Z,36.00
2023-03-07T05:05:37.598Z,35.10
2023-03-07T05:08:10.484Z,32.10
2023-03-07T05:10:43.099Z,30.90
2023-03-07T05:13:15.306Z,28.30
2023-03-07T05:15:53.745Z,36.50
2023-03-07T05:18:27.859Z,56.30
2023-03-07T05:21:02.183Z,48.70
2023-03-07T05:23:34.818Z,84.40
2023-03-07T05:26:07.311Z,85.70
2023-03-07T05:28:39.993Z,75.70
2023-03-07T05:31:12.629Z,92.90
2023-03-07T05:33:44.812Z,53.80
2023-03-07T05:36:17.698Z,82.10
2023-03-07T05:38:49.990Z,45.00
2023-03-07T05:41:22.211Z,38.30
2023-03-07T05:43:55.451Z,51.40
2023-03-07T05:46:28.370Z,29.10
2023-03-07T05:49:00.666Z,34.00
2023-03-07T05:51:33.117Z,28.10
2023-03-07T05:54:05.538Z,28.60
2023-03-07T05:56:37.841Z,33.90
2023-03-07T05:59:13.079Z,36.70
2023-03-07T06:01:45.524Z,35.00
2023-03-07T06:04:17.896Z,32.70
2023-03-07T06:06:50.205Z,31.70
2023-03-07T06:09:23.710Z,34.10
2023-03-07T06:11:56.810Z,35.70
2023-03-07T06:14:28.973Z,35.30
2023-03-07T06:17:01.633Z,43.80
2023-03-07T06:19:34.079Z,41.10
2023-03-07T06:22:06.536Z,39.30
2023-03-07T06:24:38.934Z,43.50
2023-03-07T06:27:11.943Z,49.70
2023-03-07T06:29:45.135Z,55.90
2023-03-07T06:32:17.227Z,52.40
2023-03-07T06:34:49.396Z,150.70
2023-03-07T06:37:21.718Z,38.10
2023-03-07T06:39:54.398Z,280.60
2023-03-07T06:42:26.702Z,160.10
2023-03-07T06:44:59.092Z,33.00
2023-03-07T06:47:33.320Z,54.40
2023-03-07T06:50:06.132Z,75.90
2023-03-07T06:52:38.749Z,47.10
2023-03-07T06:55:13.424Z,43.10
2023-03-07T06:57:45.541Z,83.60
2023-03-07T07:00:20.894Z,47.10
2023-03-07T07:02:53.329Z,30.80
2023-03-07T07:05:26.217Z,43.80
2023-03-07T07:07:58.719Z,60.60
2023-03-07T07:10:31.041Z,38.60
2023-03-07T07:13:04.675Z,33.70
2023-03-07T07:15:37.475Z,29.10
2023-03-07T07:18:11.854Z,36.30
2023-03-07T07:20:44.098Z,37.40
2023-03-07T07:23:16.438Z,28.00
2023-03-07T07:25:48.638Z,33.40
2023-03-07T07:28:20.802Z,31.70
2023-03-07T07:30:53.018Z,35.50
2023-03-07T07:33:25.291Z,31.40
2023-03-07T07:35:59.027Z,25.40
2023-03-07T07:38:31.700Z,28.00
2023-03-07T07:41:03.859Z,30.30
2023-03-07T07:43:37.370Z,23.70
2023-03-07T07:46:17.360Z,24.20
2023-03-07T07:48:50.747Z,27.60
2023-03-07T07:51:23.555Z,22.70
2023-03-07T07:53:56.334Z,20.80
2023-03-07T07:56:28.710Z,25.70
2023-03-07T07:59:00.805Z,51.90
2023-03-07T08:01:33.089Z,34.70
2023-03-07T08:04:05.217Z,29.50
2023-03-07T08:06:37.410Z,29.20
2023-03-07T08:09:09.553Z,31.60
2023-03-07T08:11:42.720Z,33.00
2023-03-07T08:14:14.812Z,32.10
2023-03-07T08:16:46.886Z,34.70
2023-03-07T08:19:19.022Z,31.40
2023-03-07T08:21:51.165Z,29.30
2023-03-07T08:24:29.345Z,32.80
2023-03-07T08:27:07.866Z,23.80
2023-03-07T08:29:40.087Z,42.20
2023-03-07T08:32:15.259Z,29.80
2023-03-07T08:34:47.881Z,26.10
2023-03-07T08:37:20.098Z,24.70
2023-03-07T08:39:52.245Z,30.90
2023-03-07T08:42:24.465Z,25.40
2023-03-07T08:44:56.682Z,23.20
2023-03-07T08:47:28.895Z,24.70
2023-03-07T08:50:01.072Z,29.00
2023-03-07T08:52:33.160Z,27.10
2023-03-07T08:55:05.860Z,23.40
2023-03-07T08:57:37.978Z,23.30
2023-03-07T09:00:14.316Z,28.70
2023-03-07T09:02:46.536Z,24.30
2023-03-07T09:05:19.268Z,23.00
2023-03-07T09:07:51.638Z,24.40
2023-03-07T09:10:24.137Z,31.50
2023-03-07T09:12:56.491Z,26.60
2023-03-07T09:15:28.700Z,29.10
2023-03-07T09:18:00.864Z,26.50
2023-03-07T09:20:32.915Z,36.80
2023-03-07T09:23:05.375Z,23.60
2023-03-07T09:25:39.889Z,25.70
2023-03-07T09:28:12.011Z,22.10
2023-03-07T09:30:44.158Z,23.20
2023-03-07T09:33:17.116Z,27.00
2023-03-07T09:35:49.945Z,23.60
2023-03-07T09:38:22.352Z,25.60
2023-03-07T09:40:55.001Z,26.80
2023-03-07T09:43:34.907Z,29.60
2023-03-07T09:46:34.919Z,41.70
2023-03-07T09:49:21.734Z,48.90
2023-03-07T09:51:59.198Z,37.30
2023-03-07T09:54:40.117Z,40.70
2023-03-07T09:57:20.084Z,32.00
2023-03-07T09:59:55.204Z,48.10
2023-03-07T10:02:34.261Z,42.20
2023-03-07T10:05:17.380Z,49.80
2023-03-07T10:07:49.841Z,42.20
2023-03-07T10:10:25.524Z,51.60
2023-03-07T10:13:12.668Z,37.60
2023-03-07T10:15:49.787Z,48.80
2023-03-07T10:18:47.025Z,69.00
2023-03-07T10:21:29.410Z,39.80
2023-03-07T10:24:20.931Z,70.60
2023-03-07T10:27:01.052Z,53.70
2023-03-07T10:29:40.380Z,52.30
2023-03-07T10:32:24.231Z,52.30
2023-03-07T10:35:02.839Z,48.00
2023-03-07T10:37:46.533Z,42.70
2023-03-07T10:40:24.577Z,38.70
2023-03-07T10:42:58.380Z,40.50
2023-03-07T10:45:33.250Z,38.70
2023-03-07T10:48:10.391Z,33.20
2023-03-07T10:50:47.602Z,33.00
2023-03-07T10:53:26.555Z,40.50
2023-03-07T10:56:13.010Z,39.70
2023-03-07T10:59:02.148Z,38.50
2023-03-07T11:01:35.863Z,45.00
2023-03-07T11:04:21.308Z,40.60
2023-03-07T11:09:30.130Z,45.40
2023-03-07T11:12:12.443Z,41.10
2023-03-07T11:14:52.213Z,43.30
2023-03-07T11:17:27.285Z,39.30
2023-03-07T11:22:33.919Z,31.70
2023-03-07T11:25:16.008Z,33.70
2023-03-07T11:27:54.121Z,33.80
2023-03-07T11:30:29.781Z,35.60
2023-03-07T11:33:17.093Z,37.30
2023-03-07T11:35:58.291Z,38.20
2023-03-07T11:38:42.575Z,37.40
2023-03-07T11:41:23.374Z,39.80
2023-03-07T11:44:19.846Z,38.10
2023-03-07T11:47:30.889Z,44.10
2023-03-07T11:50:22.381Z,36.30
2023-03-07T11:53:17.701Z,35.90
2023-03-07T11:56:01.775Z,46.90
2023-03-07T11:59:03.297Z,41.50
2023-03-07T12:01:44.765Z,41.70
2023-03-07T12:04:54.749Z,37.20
2023-03-07T12:07:57.405Z,38.50
2023-03-07T12:10:45.878Z,39.90
2023-03-07T12:13:34.227Z,38.20
2023-03-07T12:16:19.838Z,37.70
2023-03-07T12:19:08.117Z,38.20
2023-03-07T12:21:59.320Z,35.00
2023-03-07T12:24:36.353Z,33.70
2023-03-07T12:27:16.565Z,37.00
2023-03-07T12:29:53.275Z,37.90
2023-03-07T12:32:27.854Z,39.50
2023-03-07T12:35:05.252Z,39.90
2023-03-07T12:37:44.431Z,35.00
2023-03-07T12:40:22.567Z,35.70
2023-03-07T12:43:00.216Z,36.40
2023-03-07T12:45:49.462Z,35.20
2023-03-07T12:48:29.595Z,36.80
2023-03-07T12:51:09.619Z,32.70
2023-03-07T12:53:47.883Z,37.90
2023-03-07T12:56:24.538Z,34.40
2023-03-07T12:59:02.628Z,33.00
2023-03-07T13:01:38.280Z,33.00
2023-03-07T13:04:18.164Z,34.70
2023-03-07T13:06:51.332Z,35.80
2023-03-07T13:09:26.583Z,35.00
2023-03-07T13:12:31.340Z,32.20
2023-03-07T13:15:05.523Z,36.40
2023-03-07T13:17:59.824Z,41.10
2023-03-07T13:20:43.769Z,30.80
2023-03-07T13:23:29.636Z,36.50
2023-03-07T13:26:24.017Z,35.10
2023-03-07T13:28:57.586Z,31.30
2023-03-07T13:31:44.430Z,33.10
2023-03-07T13:34:51.657Z,40.40
2023-03-07T13:37:53.993Z,39.20
2023-03-07T13:40:53.825Z,35.90
2023-03-07T13:44:00.196Z,32.80
2023-03-07T13:46:54.400Z,35.80
2023-03-07T13:49:47.147Z,35.50
2023-03-07T13:52:31.212Z,28.40
2023-03-07T13:55:06.121Z,28.30
2023-03-07T13:57:44.101Z,33.70
2023-03-07T14:00:38.543Z,34.10
2023-03-07T14:03:28.157Z,63.20
2023-03-07T14:06:04.713Z,35.70
2023-03-07T14:08:37.229Z,33.10
2023-03-07T14:11:20.755Z,34.90
2023-03-07T14:14:17.164Z,39.90
2023-03-07T14:16:59.398Z,37.50
2023-03-07T14:19:49.234Z,48.80
2023-03-07T14:22:36.685Z,60.90
2023-03-07T14:25:19.226Z,43.30
2023-03-07T14:27:56.842Z,43.70
2023-03-07T14:30:31.584Z,39.30
2023-03-07T14:33:04.178Z,31.70
2023-03-07T14:35:39.349Z,43.10
2023-03-07T14:38:22.172Z,36.90
2023-03-07T14:41:12.169Z,33.40
2023-03-07T14:43:56.653Z,32.00
2023-03-07T14:46:40.221Z,35.10
2023-03-07T14:49:23.950Z,42.80
2023-03-07T14:51:56.317Z,33.30
2023-03-07T14:54:35.120Z,38.50
2023-03-07T14:57:16.666Z,48.50
2023-03-07T15:00:20.154Z,59.80
2023-03-07T15:02:54.703Z,38.40
2023-03-07T15:05:30.613Z,33.70
2023-03-07T15:08:02.829Z,31.90
2023-03-07T15:10:42.134Z,52.30
2023-03-07T15:13:24.007Z,38.30
2023-03-07T15:16:00.205Z,36.80
2023-03-07T15:18:36.981Z,31.90
2023-03-07T15:21:17.290Z,29.70
2023-03-07T15:23:56.397Z,33.20
2023-03-07T15:26:30.405Z,29.90
2023-03-07T15:29:08.898Z,37.20
2023-03-07T15:31:54.275Z,36.10
2023-03-07T15:37:22.515Z,30.90
2023-03-07T15:40:02.861Z,34.10
2023-03-07T15:42:35.667Z,32.80
2023-03-07T15:45:22.654Z,27.70
2023-03-07T15:47:55.068Z,30.40
2023-03-07T15:50:29.886Z,28.00
2023-03-07T15:53:09.179Z,27.10
2023-03-07T15:55:56.937Z,24.70
2023-03-07T15:58:30.363Z,24.00
2023-03-07T16:01:18.957Z,27.10
2023-03-07T16:03:56.594Z,24.70
2023-03-07T16:06:42.598Z,22.50
2023-03-07T16:09:16.562Z,27.20
2023-03-07T16:11:49.755Z,36.10
2023-03-07T16:14:26.551Z,28.90
2023-03-07T16:17:01.340Z,24.10
2023-03-07T16:19:33.884Z,21.90
2023-03-07T16:22:10.814Z,26.40
2023-03-07T16:24:43.162Z,26.50
2023-03-07T16:27:18.891Z,25.10
2023-03-07T16:29:51.668Z,22.40
2023-03-07T16:32:24.952Z,24.00
2023-03-07T16:34:57.158Z,25.50
2023-03-07T16:37:29.976Z,28.00
2023-03-07T16:40:02.258Z,33.50
2023-03-07T16:42:35.275Z,48.60
2023-03-07T16:45:12.943Z,41.80
2023-03-07T16:47:45.077Z,61.40
2023-03-07T16:50:20.670Z,25.60
2023-03-07T16:52:52.859Z,23.00
2023-03-07T16:55:25.891Z,26.40
2023-03-07T16:58:01.724Z,27.00
2023-03-07T17:00:34.912Z,23.00
2023-03-07T17:03:07.040Z,22.40
2023-03-07T17:05:39.611Z,26.20
2023-03-07T17:08:11.770Z,29.70
2023-03-07T17:10:44.929Z,33.30
2023-03-07T17:13:19.899Z,32.20
2023-03-07T17:18:23.415Z,26.30
2023-03-07T17:20:55.455Z,21.70
2023-03-07T17:23:27.790Z,24.30
2023-03-07T17:26:00.111Z,31.30
2023-03-07T17:28:32.413Z,24.30
2023-03-07T17:31:04.872Z,23.80
2023-03-07T17:33:36.998Z,23.20
2023-03-07T17:36:12.509Z,24.20
2023-03-07T17:38:44.997Z,25.30
2023-03-07T17:41:17.779Z,29.20
2023-03-07T17:43:49.884Z,27.20
2023-03-07T17:46:24.489Z,23.10
2023-03-07T17:48:57.249Z,26.90
2023-03-07T17:51:29.883Z,32.90
2023-03-07T17:54:02.382Z,28.90
2023-03-07T17:56:34.536Z,22.90
2023-03-07T17:59:06.795Z,25.90
2023-03-07T18:01:40.116Z,38.10
2023-03-07T18:04:12.544Z,27.10
2023-03-07T18:06:44.614Z,21.80
2023-03-07T18:09:18.819Z,21.90
2023-03-07T18:11:51.225Z,19.50
2023-03-07T18:14:23.410Z,20.70
2023-03-07T18:16:56.092Z,20.90
2023-03-07T18:19:28.492Z,21.00
2023-03-07T18:22:00.896Z,19.40
2023-03-07T18:24:33.088Z,19.80
2023-03-07T18:27:08.580Z,20.20
2023-03-07T18:29:40.749Z,22.70
2023-03-07T18:32:13.431Z,21.40
2023-03-07T18:34:46.797Z,19.70
2023-03-07T18:37:19.121Z,22.00
2023-03-07T18:39:51.274Z,19.90
2023-03-07T18:42:23.492Z,18.30
2023-03-07T18:44:55.889Z,22.10
2023-03-07T18:47:28.085Z,26.80
2023-03-07T18:50:00.414Z,20.10
2023-03-07T18:52:32.506Z,21.50
2023-03-07T18:55:04.886Z,49.00
2023-03-07T18:57:37.064Z,53.60
2023-03-07T19:00:13.453Z,43.90
2023-03-07T19:02:45.635Z,33.70
2023-03-07T19:05:18.238Z,90.50
2023-03-07T19:07:50.415Z,64.20
2023-03-07T19:10:22.759Z,73.40
2023-03-07T19:12:54.959Z,159.40
2023-03-07T19:15:27.191Z,67.00
2023-03-07T19:17:59.397Z,92.50
2023-03-07T19:20:31.662Z,143.00
2023-03-07T19:23:03.862Z,95.70
2023-03-07T19:25:38.609Z,57.60
2023-03-07T19:28:10.696Z,159.40
2023-03-07T19:30:42.812Z,129.40
2023-03-07T19:33:14.961Z,86.70
2023-03-07T19:35:47.178Z,117.70
2023-03-07T19:38:19.707Z,185.80
2023-03-07T19:40:52.113Z,125.30
2023-03-07T19:43:24.355Z,101.60
2023-03-07T19:45:56.989Z,134.40
2023-03-07T19:48:29.465Z,126.00
2023-03-07T19:51:01.627Z,119.20
2023-03-07T19:53:33.840Z,154.90
2023-03-07T19:56:13.777Z,71.80
2023-03-07T19:58:45.910Z,98.10
2023-03-07T20:01:19.719Z,60.80
2023-03-07T20:03:52.707Z,79.70
2023-03-07T20:06:28.481Z,124.10
2023-03-07T20:09:01.794Z,98.70
2023-03-07T20:11:36.888Z,73.20
2023-03-07T20:16:40.682Z,42.50
2023-03-07T20:19:14.287Z,57.60
2023-03-07T20:21:49.953Z,66.70
2023-03-07T20:24:22.311Z,77.00
2023-03-07T20:26:54.429Z,34.00
2023-03-07T20:29:26.576Z,30.70
2023-03-07T20:31:58.625Z,17.90
2023-03-07T20:34:30.754Z,21.70
2023-03-07T20:37:03.604Z,25.70
2023-03-07T20:39:35.756Z,30.10
2023-03-07T20:42:08.417Z,31.30
2023-03-07T20:44:40.727Z,15.60
2023-03-07T20:47:12.902Z,22.30
2023-03-07T20:49:45.029Z,19.70
2023-03-07T20:52:17.190Z,16.40
2023-03-07T20:54:49.317Z,15.30
2023-03-07T20:57:21.479Z,15.60
2023-03-07T20:59:53.645Z,18.40
2023-03-07T21:02:25.775Z,20.00
2023-03-07T21:04:58.032Z,22.10
2023-03-07T21:07:30.207Z,19.80
2023-03-07T21:10:02.396Z,21.10
2023-03-07T21:12:36.031Z,19.80
2023-03-07T21:15:10.874Z,16.70
2023-03-07T21:17:43.106Z,19.20
2023-03-07T21:20:15.881Z,23.80
2023-03-07T21:22:48.076Z,22.10
2023-03-07T21:25:20.349Z,15.70
2023-03-07T21:27:52.589Z,14.80
2023-03-07T21:30:24.657Z,20.90
2023-03-07T21:32:59.521Z,20.60
2023-03-07T21:35:32.369Z,16.00
2023-03-07T21:38:04.694Z,11.40
2023-03-07T21:40:36.916Z,14.20
2023-03-07T21:43:09.170Z,14.50
2023-03-07T21:45:41.349Z,13.80
2023-03-07T21:48:13.721Z,10.40
2023-03-07T21:50:46.929Z,10.90
2023-03-07T21:53:19.266Z,9.60
2023-03-07T21:55:57.094Z,9.40
2023-03-07T21:58:30.585Z,7.40
2023-03-07T22:01:09.757Z,9.10
2023-03-07T22:03:42.967Z,8.70
2023-03-07T22:06:16.877Z,10.50
2023-03-07T22:08:49.220Z,10.00
2023-03-07T22:11:21.794Z,11.40
2023-03-07T22:13:54.038Z,11.40
2023-03-07T22:16:26.167Z,20.50
2023-03-07T22:18:58.777Z,7.90
2023-03-07T22:21:30.906Z,8.70
2023-03-07T22:24:03.101Z,8.90
2023-03-07T22:26:35.674Z,12.50
2023-03-07T22:29:07.892Z,10.10
2023-03-07T22:31:40.184Z,8.00
2023-03-07T22:34:12.358Z,7.50
2023-03-07T22:36:44.475Z,8.30
2023-03-07T22:39:16.657Z,9.60
2023-03-07T22:41:48.784Z,8.10
2023-03-07T22:44:21.027Z,9.50
2023-03-07T22:46:53.686Z,8.00
2023-03-07T22:49:26.821Z,8.60
2023-03-07T22:51:59.120Z,8.60
2023-03-07T22:54:31.344Z,10.80
2023-03-07T22:57:03.544Z,115.80
2023-03-07T22:59:35.997Z,190.00
2023-03-07T23:02:08.462Z,89.40
2023-03-07T23:04:40.719Z,22.00
2023-03-07T23:07:13.235Z,86.80
2023-03-07T23:09:45.808Z,25.20
2023-03-07T23:12:17.979Z,14.90
2023-03-07T23:14:50.137Z,56.30
2023-03-07T23:17:22.571Z,72.00
2023-03-07T23:19:55.280Z,22.50
2023-03-07T23:22:27.581Z,35.50
2023-03-07T23:24:59.817Z,34.00
2023-03-07T23:27:32.281Z,19.30
2023-03-07T23:30:04.691Z,85.50
2023-03-07T23:32:36.825Z,108.20
2023-03-07T23:35:11.442Z,134.60
2023-03-07T23:37:43.553Z,62.40
2023-03-07T23:40:16.705Z,39.20
2023-03-07T23:42:49.022Z,55.80
2023-03-07T23:45:22.326Z,14.40
2023-03-07T23:47:54.634Z,10.40
2023-03-07T23:50:27.107Z,9.60
2023-03-07T23:52:59.203Z,8.80
2023-03-07T23:55:31.392Z,8.20
2023-03-07T23:58:03.435Z,7.80
